Time;durP1;ratioP1;P1;durP2;ratioP2;P2;SDS_P1;SDS_P2;PMS_P1;PMS_P2;Temp;Humidity;BMP_temperature;BMP_pressure;BME280_temperature;BME280_humidity;BME280_pressure;Samples;Min_cycle;Max_cycle;Signal;HPM_P1;HPM_P2
2022/08/24 00:01:09;;;;;;;14.32;6.43;;;;;;;23.24;84.09;99962.19;4951971;29;20031;-73
2022/08/24 00:03:36;;;;;;;10.80;6.00;;;;;;;23.21;84.28;99967.53;4952097;28;20092;-74
2022/08/24 00:06:03;;;;;;;11.77;6.03;;;;;;;23.29;83.86;99967.34;4952026;28;20042;-72
2022/08/24 00:08:30;;;;;;;8.27;6.13;;;;;;;23.38;82.67;99959.25;4952050;28;20027;-74
2022/08/24 00:10:55;;;;;;;8.25;5.55;;;;;;;23.13;83.60;99969.44;4951667;28;20040;-73
2022/08/24 00:13:21;;;;;;;8.20;6.30;;;;;;;23.06;84.11;99966.94;4952170;28;20392;-71
2022/08/24 00:15:46;;;;;;;7.72;5.95;;;;;;;22.82;85.18;99962.22;5016975;28;20050;-72
2022/08/24 00:18:13;;;;;;;8.18;5.82;;;;;;;22.73;85.64;99976.44;4952030;29;20111;-72
2022/08/24 00:20:39;;;;;;;8.48;5.38;;;;;;;22.70;85.35;99971.28;4951586;29;20035;-72
2022/08/24 00:23:05;;;;;;;8.88;6.32;;;;;;;22.74;85.11;99992.22;4951705;28;20408;-71
2022/08/24 00:25:31;;;;;;;7.70;5.60;;;;;;;22.58;85.26;99961.84;4951401;29;20042;-72
2022/08/24 00:27:57;;;;;;;9.50;6.57;;;;;;;22.62;86.13;99989.84;4951823;28;20027;-73
2022/08/24 00:30:23;;;;;;;8.27;5.50;;;;;;;22.74;85.58;99986.09;4951545;29;20043;-71
2022/08/24 00:32:49;;;;;;;14.25;6.47;;;;;;;22.81;84.54;99969.28;5016751;28;20043;-74
2022/08/24 00:35:19;;;;;;;10.32;6.40;;;;;;;22.90;84.32;99976.97;4951388;29;20035;-74
2022/08/24 00:37:46;;;;;;;6.85;5.47;;;;;;;23.00;83.20;99988.16;4951512;28;20102;-73
2022/08/24 00:40:25;;;;;;;10.32;5.75;;;;;;;23.07;82.38;99994.16;4951575;28;20035;-71
2022/08/24 00:42:52;;;;;;;9.50;5.65;;;;;;;23.14;81.42;99989.63;4950885;29;20489;-70
2022/08/24 00:45:19;;;;;;;9.77;5.43;;;;;;;23.01;82.15;99989.88;4999684;28;20039;-70
2022/08/24 00:47:54;;;;;;;10.32;5.75;;;;;;;23.07;82.60;99989.75;4951303;29;20035;-71
2022/08/24 00:50:47;;;;;;;8.43;5.22;;;;;;;23.06;81.10;99976.63;4951464;28;20031;-69
2022/08/24 00:53:31;;;;;;;9.50;5.63;;;;;;;22.86;82.62;99995.50;4955740;28;20040;-70
2022/08/24 00:56:02;;;;;;;6.50;5.18;;;;;;;22.53;83.65;99980.38;5043244;28;20037;-71
2022/08/24 00:58:34;;;;;;;8.80;6.00;;;;;;;22.55;83.95;100002.25;5052014;28;20100;-69
2022/08/24 01:01:02;;;;;;;8.23;5.97;;;;;;;22.16;86.23;99988.94;5051898;28;20025;-69
2022/08/24 01:03:30;;;;;;;8.23;6.68;;;;;;;21.71;88.85;99987.09;5033944;28;20021;-71
2022/08/24 01:05:57;;;;;;;8.38;6.90;;;;;;;21.28;91.03;99961.50;5051774;28;20140;-69
2022/08/24 01:08:23;;;;;;;9.95;7.15;;;;;;;21.32;92.88;99989.44;5051503;28;20032;-69
2022/08/24 01:10:55;;;;;;;9.57;7.10;;;;;;;21.14;93.79;99980.94;5051782;28;20044;-69
2022/08/24 01:13:24;;;;;;;9.75;7.32;;;;;;;20.94;95.04;99980.38;4953758;28;20096;-72
2022/08/24 01:15:53;;;;;;;14.00;7.03;;;;;;;20.72;95.90;99977.16;4950975;28;20506;-73
2022/08/24 01:21:09;;;;;;;8.50;7.00;;;;;;;20.67;97.06;99995.53;5029652;28;20036;-70
2022/08/24 01:23:46;;;;;;;11.68;7.47;;;;;;;20.47;99.47;99991.41;5028995;28;20033;-73
2022/08/24 01:26:31;;;;;;;11.15;7.32;;;;;;;20.52;98.94;99992.22;5028937;28;20100;-69
2022/08/24 01:29:01;;;;;;;10.80;7.28;;;;;;;20.58;98.60;100000.91;5028701;28;20470;-70
2022/08/24 01:31:27;;;;;;;10.43;7.32;;;;;;;20.56;98.59;100006.19;5028826;28;20416;-71
2022/08/24 01:33:54;;;;;;;9.65;7.15;;;;;;;20.58;97.89;99987.78;5028592;28;20054;-72
2022/08/24 01:36:45;;;;;;;10.82;7.05;;;;;;;20.46;97.55;99975.69;5028941;28;20057;-70
2022/08/24 01:39:19;;;;;;;12.73;7.32;;;;;;;20.78;97.35;100004.16;5028375;28;20037;-73
2022/08/24 01:41:45;;;;;;;11.23;7.32;;;;;;;20.83;96.90;100007.59;5028603;28;20460;-69
2022/08/24 01:44:12;;;;;;;10.48;7.40;;;;;;;20.59;96.61;99979.91;5028519;28;20535;-71
2022/08/24 01:46:43;;;;;;;10.57;7.47;;;;;;;20.94;95.76;100010.09;5028458;28;20026;-72
2022/08/24 01:49:09;;;;;;;10.23;7.20;;;;;;;21.14;94.93;100009.81;5037773;28;20127;-71
2022/08/24 01:51:35;;;;;;;9.23;7.47;;;;;;;21.22;94.28;100009.72;5050788;28;20505;-70
2022/08/24 01:54:02;;;;;;;9.65;6.75;;;;;;;21.29;93.77;100016.59;5050869;28;20400;-70
2022/08/24 01:56:29;;;;;;;11.20;6.78;;;;;;;21.18;93.62;100010.63;5050911;28;20478;-74
2022/08/24 01:58:55;;;;;;;10.43;6.90;;;;;;;21.21;93.71;100007.09;5050535;28;20120;-73
2022/08/24 02:01:23;;;;;;;11.07;7.07;;;;;;;21.32;93.28;100007.81;5038870;28;20110;-71
2022/08/24 02:03:48;;;;;;;10.27;6.82;;;;;;;21.31;92.34;100011.34;4969871;28;20034;-73
2022/08/24 02:06:17;;;;;;;12.52;7.28;;;;;;;21.28;92.50;100011.38;4968989;28;20038;-70
2022/08/24 02:08:43;;;;;;;10.27;6.95;;;;;;;21.30;92.69;100001.72;4969448;28;20024;-72
2022/08/24 02:11:08;;;;;;;9.85;6.88;;;;;;;21.07;93.54;100002.94;4981238;28;20414;-72
2022/08/24 02:13:36;;;;;;;8.88;7.22;;;;;;;21.21;92.80;99999.22;5070168;28;20086;-72
2022/08/24 02:16:02;;;;;;;11.18;7.20;;;;;;;21.12;93.04;99995.88;5070702;28;20040;-74
2022/08/24 02:18:27;;;;;;;10.55;6.53;;;;;;;21.07;93.01;99976.69;5070630;28;20108;-70
2022/08/24 02:20:53;;;;;;;12.70;6.88;;;;;;;21.05;92.92;99969.69;5070131;28;20089;-73
2022/08/24 02:23:19;;;;;;;8.55;6.70;;;;;;;21.14;92.72;99986.19;5070461;28;20021;-74
2022/08/24 02:25:46;;;;;;;11.52;7.07;;;;;;;21.22;92.11;99982.59;5070306;28;20032;-74
2022/08/24 02:28:12;;;;;;;9.32;7.07;;;;;;;21.37;91.66;99978.88;5052487;28;20033;-73
2022/08/24 02:30:39;;;;;;;8.10;5.60;;;;;;;21.37;90.94;99982.38;5070475;28;20085;-71
2022/08/24 02:33:05;;;;;;;9.05;5.78;;;;;;;21.46;89.71;99976.13;5070416;28;20032;-72
2022/08/24 02:35:30;;;;;;;9.43;5.88;;;;;;;21.39;89.48;99974.47;5070310;28;20051;-70
2022/08/24 02:37:56;;;;;;;8.20;6.13;;;;;;;21.55;89.39;99978.56;5054751;28;20478;-73
2022/08/24 02:40:23;;;;;;;10.48;6.20;;;;;;;21.58;88.21;99978.56;5050407;28;20056;-72
2022/08/24 02:42:48;;;;;;;9.75;6.13;;;;;;;21.41;89.40;99984.06;5050255;28;20126;-69
2022/08/24 02:45:14;;;;;;;9.88;6.40;;;;;;;21.51;89.53;99976.91;5049340;28;20518;-71
2022/08/24 02:47:40;;;;;;;10.95;6.40;;;;;;;21.34;88.60;99957.00;5030307;28;20040;-71
2022/08/24 02:53:28;;;;;;;7.85;6.22;;;;;;;21.33;90.20;99991.16;5513229;22;20497;-71
2022/08/24 02:55:53;;;;;;;9.88;5.97;;;;;;;21.33;90.95;99992.06;5070380;28;20024;-72
2022/08/24 02:58:19;;;;;;;9.77;6.03;;;;;;;21.33;90.40;99988.53;5070567;28;20464;-71
2022/08/24 03:00:46;;;;;;;11.45;6.90;;;;;;;21.39;90.46;99979.72;5018688;28;20028;-73
2022/08/24 03:03:12;;;;;;;9.32;6.43;;;;;;;21.21;90.76;99986.09;5070523;28;20058;-72
2022/08/24 03:05:38;;;;;;;12.43;6.85;;;;;;;21.41;90.33;99985.78;5070407;28;20029;-72
2022/08/24 03:08:05;;;;;;;10.30;6.25;;;;;;;21.51;90.09;99990.03;5068666;28;20115;-73
2022/08/24 03:10:31;;;;;;;12.23;6.50;;;;;;;21.53;89.94;99977.72;5070412;28;20025;-73
2022/08/24 03:12:57;;;;;;;9.45;6.32;;;;;;;21.62;89.84;99997.75;5035252;28;20074;-73
2022/08/24 03:15:23;;;;;;;11.50;6.38;;;;;;;21.52;90.19;99969.88;5070447;28;20034;-72
2022/08/24 03:17:49;;;;;;;9.02;6.40;;;;;;;21.81;89.43;100001.81;5070430;28;20029;-71
2022/08/24 03:20:19;;;;;;;9.77;6.60;;;;;;;22.02;88.18;100010.25;5070404;28;20025;-73
2022/08/24 03:22:45;;;;;;;7.80;6.05;;;;;;;22.05;88.28;100010.16;5070783;28;20505;-71
2022/08/24 03:25:12;;;;;;;10.63;6.30;;;;;;;22.03;88.71;100011.09;5032188;28;20028;-70
2022/08/24 03:27:37;;;;;;;9.80;6.13;;;;;;;22.12;88.49;100014.44;5054352;28;20033;-72
2022/08/24 03:30:06;;;;;;;10.10;5.97;;;;;;;22.24;87.99;100012.47;5054088;28;20052;-72
2022/08/24 03:32:31;;;;;;;8.43;6.30;;;;;;;22.39;87.27;100011.34;5054100;28;20033;-72
2022/08/24 03:34:57;;;;;;;9.35;6.32;;;;;;;22.54;85.72;100015.44;5053904;28;20109;-72
2022/08/24 03:37:22;;;;;;;6.90;5.60;;;;;;;22.61;85.02;100017.06;5054211;28;20060;-72
2022/08/24 03:39:49;;;;;;;10.15;6.00;;;;;;;22.64;84.88;100016.13;5053841;28;20028;-75
2022/08/24 03:42:15;;;;;;;9.57;6.63;;;;;;;22.74;84.30;100018.53;5054450;28;20029;-73
2022/08/24 03:44:41;;;;;;;10.77;6.90;;;;;;;22.88;83.72;100020.00;5067992;28;20031;-72
2022/08/24 03:47:09;;;;;;;11.20;6.88;;;;;;;22.89;83.39;100022.63;5072930;28;20036;-74
2022/08/24 03:49:36;;;;;;;9.15;6.63;;;;;;;23.00;83.25;100030.28;5070370;28;20021;-72
2022/08/24 03:52:02;;;;;;;14.93;6.63;;;;;;;22.84;83.42;100018.34;5073119;28;20067;-73
2022/08/24 03:54:27;;;;;;;8.60;6.03;;;;;;;22.96;83.18;100027.75;5072573;28;20102;-73
2022/08/24 03:56:53;;;;;;;10.85;6.43;;;;;;;22.94;83.25;100030.41;5072542;28;20028;-73
2022/08/24 03:59:18;;;;;;;15.75;6.97;;;;;;;;;;5072507;28;20113;-74
2022/08/24 04:01:44;;;;;;;13.65;6.70;;;;;;;22.85;84.22;100033.25;5055108;28;20032;-71
2022/08/24 04:04:10;;;;;;;10.70;6.57;;;;;;;22.86;84.44;100038.47;5073005;28;20033;-73
2022/08/24 04:06:35;;;;;;;9.93;6.78;;;;;;;22.82;84.69;100031.53;5072554;28;20059;-74
2022/08/24 04:09:02;;;;;;;11.15;6.65;;;;;;;22.77;84.95;100046.56;5079447;28;20036;-78
2022/08/24 04:11:28;;;;;;;11.52;6.95;;;;;;;22.58;86.32;100041.66;5082115;28;20069;-73
2022/08/24 04:13:56;;;;;;;15.63;7.25;;;;;;;22.47;87.18;100051.53;5072540;28;20029;-74
2022/08/24 04:16:22;;;;;;;12.13;7.03;;;;;;;22.59;86.62;100053.03;5072939;28;20497;-73
2022/08/24 04:18:48;;;;;;;14.13;9.68;;;;;;;22.22;88.91;100046.69;5073114;28;20028;-74
2022/08/24 04:21:23;;;;;;;10.38;8.45;;;;;;;21.81;90.18;100027.25;5073173;28;20058;-73
2022/08/24 04:23:53;;;;;;;13.73;8.05;;;;;;;21.95;90.61;100053.28;5073228;28;20029;-73
2022/08/24 04:26:20;;;;;;;;;;;;;;;21.94;90.71;100054.16;5073512;28;20099;-74
2022/08/24 04:28:45;;;;;;;10.77;6.90;;;;;;;21.92;91.11;100048.94;5073059;28;19913;-73
2022/08/24 04:31:12;;;;;;;11.23;8.20;;;;;;;21.94;90.77;100052.44;5064003;28;20528;-74
2022/08/24 04:33:38;;;;;;;14.65;9.10;;;;;;;21.95;90.98;100048.03;5072417;28;20070;-72
2022/08/24 04:36:08;;;;;;;15.52;8.05;;;;;;;21.78;91.19;100046.56;5061954;28;20119;-72
2022/08/24 04:38:35;;;;;;;16.75;7.45;;;;;;;21.86;92.16;100051.69;5057077;28;20032;-75
2022/08/24 04:41:04;;;;;;;12.43;6.72;;;;;;;21.97;91.73;100062.88;5071208;28;20043;-72
2022/08/24 04:43:30;;;;;;;9.27;6.22;;;;;;;21.81;91.68;100062.25;5036495;28;20044;-70
2022/08/24 04:45:55;;;;;;;15.60;6.90;;;;;;;21.60;92.37;100031.06;5071885;28;20025;-71
2022/08/24 04:48:21;;;;;;;11.50;6.40;;;;;;;21.59;92.37;100029.34;5079724;28;20037;-74
2022/08/24 04:50:47;;;;;;;9.63;6.82;;;;;;;21.52;92.46;100043.41;5071341;28;20025;-72
2022/08/24 04:53:13;;;;;;;10.20;6.88;;;;;;;21.34;92.97;100050.69;5071108;28;20499;-74
2022/08/24 04:55:48;;;;;;;9.57;6.75;;;;;;;21.46;92.95;100058.38;5053586;28;20454;-73
2022/08/24 04:58:14;;;;;;;11.15;7.10;;;;;;;21.33;93.05;100035.81;5068882;28;20077;-71
2022/08/24 05:00:41;;;;;;;11.85;7.03;;;;;;;21.37;93.21;100047.13;5071556;28;20092;-72
2022/08/24 05:03:07;;;;;;;10.50;6.85;;;;;;;21.42;92.77;100051.44;5071647;28;20039;-72
2022/08/24 05:05:33;;;;;;;10.60;7.20;;;;;;;21.38;92.37;100047.09;5071433;28;20474;-73
2022/08/24 05:07:59;;;;;;;9.20;7.28;;;;;;;21.32;93.06;100047.19;5071243;28;20027;-71
2022/08/24 05:10:25;;;;;;;11.38;7.80;;;;;;;21.25;93.47;100049.06;5071617;28;20028;-74
2022/08/24 05:12:50;;;;;;;11.63;7.30;;;;;;;21.25;93.85;100048.19;5071040;28;20039;-69
2022/08/24 05:15:16;;;;;;;13.77;7.53;;;;;;;21.15;94.67;100060.56;5071067;28;20103;-75
2022/08/24 05:17:42;;;;;;;13.60;8.45;;;;;;;21.08;95.49;100064.16;5071024;28;20020;-70
2022/08/24 05:20:10;;;;;;;12.13;8.35;;;;;;;21.25;95.31;100053.44;5071033;28;20021;-74
2022/08/24 05:22:38;;;;;;;12.95;8.15;;;;;;;21.22;95.14;100067.47;5068580;28;20024;-73
2022/08/24 05:25:05;;;;;;;10.27;7.18;;;;;;;21.29;95.04;100068.25;5070834;28;20031;-71
2022/08/24 05:27:32;;;;;;;12.82;7.97;;;;;;;21.31;95.04;100069.13;5070595;28;20104;-72
2022/08/24 05:29:58;;;;;;;12.02;8.15;;;;;;;21.34;95.31;100062.03;5068495;28;20441;-69
2022/08/24 05:32:24;;;;;;;16.23;8.82;;;;;;;21.32;95.32;100047.19;5070482;28;20024;-73
2022/08/24 05:34:49;;;;;;;11.20;7.60;;;;;;;21.19;95.24;100028.13;5070857;28;20488;-73
2022/08/24 05:37:15;;;;;;;10.45;8.65;;;;;;;21.31;96.41;100056.00;5070495;28;20055;-72
2022/08/24 05:39:41;;;;;;;9.95;8.45;;;;;;;21.41;96.16;100043.56;5070640;28;20028;-69
2022/08/24 05:42:06;;;;;;;10.48;8.00;;;;;;;21.53;95.54;100060.91;5070585;28;20089;-70
2022/08/24 05:44:32;;;;;;;10.35;8.32;;;;;;;21.39;95.84;100053.25;5070674;28;20111;-73
2022/08/24 05:46:59;;;;;;;10.05;8.50;;;;;;;21.55;96.41;100065.25;5069748;28;20055;-71
2022/08/24 05:49:26;;;;;;;11.43;8.40;;;;;;;21.73;94.67;100081.66;5070743;28;20029;-71
2022/08/24 05:51:52;;;;;;;12.63;8.30;;;;;;;21.79;94.64;100073.69;5070308;28;20032;-69
2022/08/24 05:54:18;;;;;;;10.63;8.18;;;;;;;21.84;93.76;100084.13;5070228;28;20056;-73
2022/08/24 05:56:44;;;;;;;12.88;8.93;;;;;;;21.85;93.49;100078.00;5070502;28;20071;-70
2022/08/24 05:59:13;;;;;;;11.77;7.35;;;;;;;22.00;92.13;100080.34;5070513;28;20096;-72
2022/08/24 06:01:40;;;;;;;11.77;7.95;;;;;;;22.04;92.82;100079.41;5070349;28;20031;-77
2022/08/24 06:04:06;;;;;;;13.05;8.32;;;;;;;21.97;92.53;100069.91;5052639;28;20497;-70
2022/08/24 06:06:32;;;;;;;12.35;7.75;;;;;;;22.11;91.59;100085.44;5070096;28;20062;-70
2022/08/24 06:09:00;;;;;;;10.77;7.85;;;;;;;22.28;90.29;100087.75;5070223;28;20406;-75
2022/08/24 06:11:30;;;;;;;12.50;8.07;;;;;;;22.42;90.79;100098.09;5070784;28;20028;-71
2022/08/24 06:13:59;;;;;;;9.65;7.75;;;;;;;22.56;88.94;100090.81;5068533;28;20032;-73
2022/08/24 06:16:25;;;;;;;10.60;7.72;;;;;;;22.62;89.50;100097.72;5068374;28;20044;-73
2022/08/24 06:18:53;;;;;;;10.38;8.18;;;;;;;22.79;88.80;100094.75;5070201;28;20029;-74
2022/08/24 06:21:22;;;;;;;13.98;7.47;;;;;;;22.94;86.27;100090.94;5040333;28;20495;-72
2022/08/24 06:23:49;;;;;;;15.15;8.18;;;;;;;22.99;86.36;100090.84;5070248;28;20437;-70
2022/08/24 06:28:59;;;;;;;8.80;6.93;;;;;;;23.29;84.14;100099.94;5079129;28;20043;-73
2022/08/24 06:31:26;;;;;;;12.13;7.90;;;;;;;23.41;86.21;100091.75;5079065;28;20630;-74
2022/08/24 06:33:52;;;;;;;10.90;7.30;;;;;;;23.54;84.48;100070.38;5076800;28;20027;-72
2022/08/24 06:36:18;;;;;;;11.07;7.60;;;;;;;23.69;83.48;100082.31;5080186;28;20039;-70
2022/08/24 06:38:43;;;;;;;10.35;7.10;;;;;;;23.78;82.42;100073.38;5080679;28;20028;-72
2022/08/24 06:41:09;;;;;;;9.20;6.15;;;;;;;23.69;81.48;100082.31;5078425;28;20103;-72
2022/08/24 06:43:38;;;;;;;9.23;6.68;;;;;;;23.78;82.40;100073.38;5073530;28;20141;-74
2022/08/24 06:46:04;;;;;;;13.03;7.90;;;;;;;23.87;83.75;100063.44;5064513;28;20119;-75
2022/08/24 06:48:31;;;;;;;10.73;7.50;;;;;;;23.88;83.06;100067.81;5070174;28;20271;-73
2022/08/24 06:50:57;;;;;;;11.55;7.07;;;;;;;24.04;81.85;100072.75;5051673;28;20040;-76
2022/08/24 06:53:23;;;;;;;11.55;7.70;;;;;;;24.14;81.56;100068.09;5069590;28;20427;-72
2022/08/24 06:55:50;;;;;;;15.55;7.18;;;;;;;24.33;80.81;100071.13;5069697;28;20071;-72
2022/08/24 06:58:17;;;;;;;7.95;6.35;;;;;;;24.34;77.84;100065.81;5070518;28;20462;-73
2022/08/24 07:00:42;;;;;;;8.48;6.25;;;;;;;24.45;79.49;100081.34;5073699;28;20387;-72
2022/08/24 07:03:08;;;;;;;8.82;6.13;;;;;;;24.51;79.16;100082.94;5073941;28;20111;-72
2022/08/24 07:05:33;;;;;;;15.43;8.88;;;;;;;24.59;77.41;100086.25;5074026;28;20099;-72
2022/08/24 07:08:00;;;;;;;15.30;7.18;;;;;;;24.44;78.61;100041.84;5074119;28;20029;-71
2022/08/24 07:10:27;;;;;;;13.88;6.88;;;;;;;24.69;78.11;100073.72;5074048;28;20031;-74
2022/08/24 07:12:52;;;;;;;12.95;7.28;;;;;;;24.85;77.80;100075.00;5074195;28;20139;-72
2022/08/24 07:15:18;;;;;;;11.02;6.55;;;;;;;25.01;77.61;100087.75;5073714;28;20478;-72
2022/08/24 07:17:44;;;;;;;9.25;6.03;;;;;;;25.02;75.43;100079.81;5073796;28;20017;-71
2022/08/24 07:20:11;;;;;;;9.45;6.43;;;;;;;25.17;76.60;100077.59;5073779;28;20056;-72
2022/08/24 07:22:37;;;;;;;13.88;6.38;;;;;;;25.33;75.48;100080.66;5073749;28;20060;-72
2022/08/24 07:25:05;;;;;;;13.40;6.03;;;;;;;25.43;73.59;100083.91;5073026;28;20033;-73
2022/08/24 07:27:31;;;;;;;11.32;6.30;;;;;;;25.52;74.32;100088.91;5073509;28;20028;-71
2022/08/24 07:29:57;;;;;;;13.30;6.22;;;;;;;25.60;73.12;100100.09;5073690;28;20028;-74
2022/08/24 07:32:22;;;;;;;12.23;6.60;;;;;;;25.76;71.75;100094.34;5073573;28;20103;-73
2022/08/24 07:34:48;;;;;;;13.25;5.82;;;;;;;25.88;72.82;100101.84;5073593;28;20041;-72
2022/08/24 07:37:14;;;;;;;10.32;5.95;;;;;;;25.64;72.66;100101.72;5073104;28;20020;-74
2022/08/24 07:39:39;;;;;;;10.93;5.97;;;;;;;25.49;73.25;100111.00;5073300;28;20032;-72
2022/08/24 07:42:05;;;;;;;7.90;5.70;;;;;;;25.37;73.82;100111.38;5073218;28;20462;-72
2022/08/24 07:44:31;;;;;;;10.57;5.90;;;;;;;25.25;73.39;100098.53;5073394;28;20040;-73
2022/08/24 07:46:57;;;;;;;11.23;6.20;;;;;;;25.24;74.64;100100.28;5073590;28;20070;-73
2022/08/24 07:49:22;;;;;;;11.50;5.97;;;;;;;25.28;75.95;100091.34;5073630;28;20097;-72
2022/08/24 07:51:51;;;;;;;13.50;6.53;;;;;;;25.38;75.96;100093.75;5073286;28;20028;-74
2022/08/24 07:54:18;;;;;;;11.85;6.28;;;;;;;25.38;74.89;100070.84;5073319;28;20053;-71
2022/08/24 07:56:44;;;;;;;12.52;6.50;;;;;;;25.52;75.55;100067.75;5072998;28;20021;-76
2022/08/24 07:59:10;;;;;;;10.20;5.57;;;;;;;25.58;75.56;100067.56;5073241;28;20561;-77
2022/08/24 08:01:37;;;;;;;11.65;6.05;;;;;;;25.65;75.02;100074.38;5072940;28;20032;-74
2022/08/24 08:04:02;;;;;;;13.50;6.05;;;;;;;25.75;74.16;100048.53;5072853;28;20492;-72
2022/08/24 08:06:28;;;;;;;9.23;5.57;;;;;;;26.13;73.11;100066.69;5037313;28;20123;-73
2022/08/24 08:08:53;;;;;;;9.68;5.13;;;;;;;26.25;72.33;100068.06;5073367;28;20158;-73
2022/08/24 08:11:19;;;;;;;13.98;6.00;;;;;;;26.29;76.45;100049.38;5071885;28;20021;-73
2022/08/24 08:13:45;;;;;;;9.73;5.65;;;;;;;26.39;71.28;100070.22;5073076;28;20028;-73
2022/08/24 08:16:11;;;;;;;9.82;6.13;;;;;;;26.54;69.93;100064.38;5072925;28;20450;-72
2022/08/24 08:18:36;;;;;;;11.10;5.93;;;;;;;26.67;69.49;100074.53;5072950;28;20151;-74
2022/08/24 08:21:03;;;;;;;11.45;5.63;;;;;;;26.84;68.04;100082.75;5072424;28;20544;-72
2022/08/24 08:26:19;;;;;;;13.13;5.57;;;;;;;27.20;67.05;100090.22;5072545;28;20028;-75
2022/08/24 08:28:45;;;;;;;12.57;5.55;;;;;;;27.23;66.36;100087.47;5072864;28;20398;-71
2022/08/24 08:31:11;;;;;;;15.02;5.60;;;;;;;27.39;69.01;100084.22;5072763;28;20021;-73
2022/08/24 08:33:37;;;;;;;13.73;6.38;;;;;;;27.39;68.20;100085.09;5072520;28;20036;-73
2022/08/24 08:36:16;;;;;;;13.07;5.65;;;;;;;27.47;69.45;100065.41;5072269;28;20614;-72
2022/08/24 08:38:41;;;;;;;15.05;5.63;;;;;;;27.27;66.60;100049.31;5072575;28;20115;-73
2022/08/24 08:41:16;;;;;;;15.75;5.68;;;;;;;27.34;66.70;100081.78;5072086;28;20140;-72
2022/08/24 08:44:01;;;;;;;14.20;5.65;;;;;;;27.24;67.24;100081.25;5072133;28;20107;-75
2022/08/24 08:47:04;;;;;;;13.27;4.93;;;;;;;26.82;66.28;100050.19;5072436;28;20182;-72
2022/08/24 08:49:47;;;;;;;13.32;5.53;;;;;;;26.98;66.69;100078.72;5072106;28;20027;-71
2022/08/24 08:52:23;;;;;;;14.93;6.40;;;;;;;26.95;66.90;100079.72;5071741;28;20494;-70
2022/08/24 08:55:22;;;;;;;14.55;5.38;;;;;;;26.96;66.17;100077.00;5071656;28;20131;-74
2022/08/24 08:58:13;;;;;;;12.07;5.15;;;;;;;27.00;66.43;100071.59;5071797;28;20050;-72
2022/08/24 09:00:54;;;;;;;13.55;5.65;;;;;;;26.95;66.32;100067.34;5071866;28;20074;-71
2022/08/24 09:03:51;;;;;;;12.45;5.57;;;;;;;27.01;66.84;100055.63;5071964;28;20107;-71
2022/08/24 09:06:54;;;;;;;11.85;5.75;;;;;;;27.07;68.64;100043.94;5071979;28;20449;-71
2022/08/24 09:09:28;;;;;;;23.55;6.15;;;;;;;27.11;69.06;100042.91;5071875;28;20051;-74
2022/08/24 09:12:10;;;;;;;14.32;6.35;;;;;;;27.10;69.29;100030.56;5072167;28;20028;-74
2022/08/24 09:14:57;;;;;;;14.20;5.68;;;;;;;27.20;72.71;100020.47;5072031;28;20035;-73
2022/08/24 09:17:48;;;;;;;15.90;5.90;;;;;;;27.19;69.86;100019.63;5071273;28;20086;-72
2022/08/24 09:20:48;;;;;;;15.48;5.90;;;;;;;27.25;69.82;100003.50;5071405;28;20491;-74
2022/08/24 09:23:35;;;;;;;15.60;6.05;;;;;;;27.22;68.62;99993.00;5071665;28;20099;-76
2022/08/24 09:26:03;;;;;;;11.70;5.05;;;;;;;27.28;67.19;99992.75;5071949;28;20116;-75
2022/08/24 09:28:57;;;;;;;17.15;5.90;;;;;;;27.43;68.03;100007.19;5071374;28;20025;-76
2022/08/24 09:31:42;;;;;;;13.25;5.75;;;;;;;27.58;64.85;100013.66;5009234;28;20062;-73
2022/08/24 09:34:30;;;;;;;18.35;6.18;;;;;;;27.88;66.60;100012.47;5008901;28;20972;-71
2022/08/24 09:37:23;;;;;;;15.77;6.13;;;;;;;28.06;66.48;99994.91;4950701;28;20051;-75
2022/08/24 09:40:16;;;;;;;18.75;6.63;;;;;;;28.32;63.61;99991.09;4950921;29;20062;-71
2022/08/24 09:42:55;;;;;;;22.52;6.13;;;;;;;28.61;64.44;99996.03;4950615;29;20541;-73
2022/08/24 09:45:39;;;;;;;21.92;6.00;;;;;;;28.87;60.70;99998.38;4950728;29;20031;-73
2022/08/24 09:48:35;;;;;;;22.42;6.32;;;;;;;29.17;62.02;99994.31;4950630;29;20059;-70
2022/08/24 09:51:22;;;;;;;16.70;5.65;;;;;;;29.30;62.34;99997.28;4950642;29;20090;-74
2022/08/24 09:54:18;;;;;;;19.38;4.97;;;;;;;29.10;61.15;99977.81;4950501;28;20051;-70
2022/08/24 09:57:11;;;;;;;22.65;6.40;;;;;;;29.25;61.46;100005.47;4950381;29;20616;-72
2022/08/24 10:00:00;;;;;;;21.35;5.75;;;;;;;29.28;59.12;99994.66;4950689;28;20050;-72
2022/08/24 10:03:06;;;;;;;24.88;6.10;;;;;;;29.24;59.56;99981.63;4950389;29;20039;-72
2022/08/24 10:05:47;;;;;;;22.02;5.95;;;;;;;29.29;58.55;99953.88;4938193;29;20031;-72
2022/08/24 10:08:41;;;;;;;22.90;5.93;;;;;;;29.47;59.99;99953.91;4946068;28;20133;-73
2022/08/24 10:11:13;;;;;;;18.73;5.75;;;;;;;29.31;60.29;99943.16;4960789;28;20042;-75
2022/08/24 10:14:01;;;;;;;21.52;5.63;;;;;;;29.58;57.79;99945.38;5000275;28;20048;-75
2022/08/24 10:16:48;;;;;;;23.58;5.93;;;;;;;29.81;57.39;99945.06;5070553;28;20094;-74
2022/08/24 10:19:17;;;;;;;24.55;6.60;;;;;;;30.04;58.47;99956.34;5069670;28;20039;-74
2022/08/24 10:21:55;;;;;;;22.30;6.60;;;;;;;29.97;58.13;99961.13;5070428;28;20024;-75
2022/08/24 10:24:42;;;;;;;24.02;5.80;;;;;;;29.90;58.13;99972.19;5070421;28;20032;-76
2022/08/24 10:27:49;;;;;;;26.88;6.57;;;;;;;29.81;57.19;99969.00;5069112;28;20020;-77
2022/08/24 10:30:54;;;;;;;31.73;6.40;;;;;;;29.65;57.13;99965.44;5068783;28;20514;-74
2022/08/24 10:33:29;;;;;;;22.65;6.50;;;;;;;29.39;56.65;99958.75;5065550;28;20028;-78
2022/08/24 10:36:20;;;;;;;30.48;6.45;;;;;;;29.49;58.10;99973.31;5067474;28;20036;-77
2022/08/24 10:42:03;;;;;;;32.22;6.35;;;;;;;29.92;58.11;99972.94;5068909;28;20044;-75
2022/08/24 10:45:00;;;;;;;29.35;5.47;;;;;;;30.01;54.16;99967.16;5069015;28;20024;-75
2022/08/24 10:47:29;;;;;;;28.50;5.82;;;;;;;30.06;54.96;99974.88;5069111;28;20502;-77
2022/08/24 10:50:29;;;;;;;22.52;5.65;;;;;;;30.06;53.44;99975.75;5069043;28;20487;-77
2022/08/24 10:53:20;;;;;;;30.67;6.35;;;;;;;29.86;55.27;99971.44;5068977;28;20135;-75
2022/08/24 10:55:47;;;;;;;32.00;6.72;;;;;;;29.80;55.67;99939.84;5069479;28;20139;-76
2022/08/24 10:58:33;;;;;;;26.58;5.97;;;;;;;29.95;54.84;99946.19;5069073;28;20021;-74
2022/08/24 11:01:22;;;;;;;28.23;5.68;;;;;;;30.01;53.70;99970.66;5050616;28;20024;-76
2022/08/24 11:03:51;;;;;;;21.77;5.78;;;;;;;30.02;54.07;99972.41;5068600;28;20123;-76
2022/08/24 11:06:18;;;;;;;23.37;6.17;;;;;;;30.18;52.79;99977.78;5068902;28;20029;-76
2022/08/24 11:08:57;;;;;;;34.88;6.55;;;;;;;30.36;53.82;99969.75;5068938;28;20036;-74
2022/08/24 11:11:35;;;;;;;21.38;4.95;;;;;;;30.49;51.26;99933.56;5068720;28;20017;-73
2022/08/24 11:14:21;;;;;;;28.03;6.03;;;;;;;30.92;50.64;99956.94;5068062;28;20040;-76
2022/08/24 11:16:47;;;;;;;30.70;5.80;;;;;;;31.03;49.81;99948.34;5050789;28;20494;-75
2022/08/24 11:19:33;;;;;;;27.52;6.00;;;;;;;31.21;50.55;99967.78;5068537;28;20028;-75
2022/08/24 11:22:27;;;;;;;22.83;5.72;;;;;;;31.14;49.29;99969.94;5068721;28;20025;-78
2022/08/24 11:24:58;;;;;;;29.08;6.05;;;;;;;31.24;51.43;99980.97;5068526;28;20060;-74
2022/08/24 11:27:42;;;;;;;24.42;5.93;;;;;;;31.34;50.41;99978.63;5066500;28;20029;-76
2022/08/24 11:30:12;;;;;;;18.75;5.55;;;;;;;31.44;48.46;99986.94;5059274;28;20025;-76
2022/08/24 11:32:55;;;;;;;27.45;5.22;;;;;;;31.27;49.71;99983.44;5065017;28;20192;-76
2022/08/24 11:35:30;;;;;;;27.00;5.35;;;;;;;31.02;48.90;99962.63;5066417;28;20030;-76
2022/08/24 11:38:13;;;;;;;27.63;5.82;;;;;;;31.16;48.27;99977.84;5070401;28;20025;-74
2022/08/24 11:40:46;;;;;;;24.33;5.65;;;;;;;31.14;49.30;99967.28;5066805;28;20050;-74
2022/08/24 11:43:45;;;;;;;24.80;5.72;;;;;;;31.14;47.81;99956.63;5066476;28;20120;-76
2022/08/24 11:46:41;;;;;;;25.60;5.97;;;;;;;31.30;49.60;99982.41;5068575;28;20037;-77
2022/08/24 11:49:26;;;;;;;21.90;5.75;;;;;;;31.24;49.47;99985.41;5070199;28;20078;-78
2022/08/24 11:51:52;;;;;;;30.73;5.72;;;;;;;31.13;49.51;99980.72;5068340;28;20039;-73
2022/08/24 11:54:47;;;;;;;30.52;5.63;;;;;;;31.07;49.79;99975.72;5070829;28;20052;-75
2022/08/24 11:57:52;;;;;;;28.25;5.85;;;;;;;31.10;50.48;99981.72;5070866;28;20083;-82
2022/08/24 12:00:22;;;;;;;27.77;5.70;;;;;;;31.15;48.95;99981.47;5069909;28;20458;-76